KCFD/CFD METAR and TAF weather

Enter ICAO airport designator
Station Type Date Time Source
KCFD METAR 2018/06/25 16:55 UTC NOAA

KCFD 251655Z AUTO 15010G17KT 10SM VCTS SCT034 BKN042 BKN049 30/22 A3004 RMK AO2 LTG DSNT W THRU N T03020217


Station Type Date Time Source
KCFD Decoded METAR 2018/06/25 16:55 UTC NOAA

Station name not available
Jun 25, 2018 - 12:55 PM EDT / 2018.06.25 1655 UTC
Wind: from the SSE (150 degrees) at 12 MPH (10 KT) gusting to 20 MPH (17 KT):0
Visibility: 10 mile(s):0
Sky conditions: mostly cloudy
Weather: thunder in the vicinity; Lightning observed
Temperature: 86.4 F (30.2 C)
Heat index: 91.9 F (33.3 C):1
Dew Point: 71.1 F (21.7 C)
Relative Humidity: 60%
Pressure (altimeter): 30.04 in. Hg (1017 hPa)
ob: KCFD 251655Z AUTO 15010G17KT 10SM VCTS SCT034 BKN042 BKN049 30/22 A3004 RMK AO2 LTG DSNT W THRU N T03020217
cycle: 17

Station Type Date Time Source
KCFD TAF UTC NOAA

Error!


Example: see airport list